Flight Track Log - Related Links

Times and Time Zones

All times are in EDT time to prevent confusion due to time zone crossing. See the DAL1670 flight status page for this flight to view local times or setup timezone preferences in your user account.

Time Position Orientation Groundspeed Altitude Reporting Facility
EDT Latitude Longitude Course Direction KTS MPH feet Rate Location/Type
Mon 08:25:02 AM 33.6333 -84.3833 81° East 182 209 2,300  Level Atlanta TRACON
Mon 08:26:02 AM 33.6333 -84.3000 90° East 270 311 4,300 2,450 Climbing Atlanta TRACON
Mon 08:27:00 AM 33.6996 -83.9941 118° Southeast  Level FlightAware Approximate
Mon 08:27:02 AM 33.6333 -84.2000 90° East 291 335 7,200  Level Atlanta TRACON
Mon 08:27:55 AM 33.6336 -84.1161 90° East 320 368 9,600 2,018 Climbing Atlanta Center
Mon 08:28:00 AM 33.6427 -83.8641 118° Southeast  Level FlightAware Approximate
Mon 08:28:55 AM 33.6147 -84.0064 102° East 326 375 11,000  Level Atlanta Center
Mon 08:29:00 AM 33.5843 -83.7352 121° Southeast  Level FlightAware Approximate
Mon 08:29:55 AM 33.5917 -83.8817 102° East 363 418 13,000  Level Atlanta Center
Mon 08:30:00 AM 33.5368 -83.6058 81° East  Level FlightAware Approximate
Mon 08:30:55 AM 33.5683 -83.7472 102° East 399 459 15,500  Level Atlanta Center
Mon 08:31:55 AM 33.5514 -83.6250 99° East 410 472 16,900 1,600 Climbing Atlanta Center
Mon 08:32:55 AM 33.5697 -83.4803 81° East 433 498 18,700 1,900 Climbing Atlanta Center
Mon 08:33:55 AM 33.5836 -83.3306 84° East 444 511 20,700 1,150 Climbing Atlanta Center
Mon 08:34:55 AM 33.6033 -83.1733 81° East 461 531 21,000 150 Climbing Atlanta Center
Mon 08:35:55 AM 33.6189 -83.0161 83° East 472 543 21,000  Level Atlanta Center
Mon 08:36:55 AM 33.6361 -82.8586 82° East 472 543 21,000  Level Atlanta Center
Mon 08:37:55 AM 33.6533 -82.7036 82° East 467 537 21,000  Level Atlanta Center
Mon 08:38:55 AM 33.6703 -82.5336 83° East 467 537 21,000  Level Atlanta Center
Mon 08:39:55 AM 33.6850 -82.3811 83° East 467 537 21,000  Level Atlanta Center
Mon 08:41:27 AM 33.7006 -82.1461 85° East 459 528 21,000  Level Jacksonville Center
Mon 08:42:27 AM 33.6581 -82.0017 109° East 442 509 21,000  Level Jacksonville Center
Mon 08:43:27 AM 33.6131 -81.8600 111° Southeast 447 514 21,000  Level Jacksonville Center
Mon 08:44:27 AM 33.5681 -81.7236 112° Southeast 447 514 21,000 -550 Level Jacksonville Center
Mon 08:45:27 AM 33.5250 -81.5869 111° Southeast 447 514 19,900 -1,300 Descending Jacksonville Center
Mon 08:46:27 AM 33.4858 -81.4531 109° East 434 499 18,400 -1,400 Descending Jacksonville Center
Mon 08:47:27 AM 33.4428 -81.3219 111° Southeast 424 488 17,100 -1,600 Descending Jacksonville Center
Mon 08:48:27 AM 33.4036 -81.2006 111° Southeast 409 471 15,200 -1,650 Descending Jacksonville Center
Mon 08:49:27 AM 33.3642 -81.0794 111° Southeast 402 463 13,800 -1,450 Descending Jacksonville Center
Mon 08:50:27 AM 33.3269 -80.9611 111° Southeast 386 444 12,300 -1,400 Descending Jacksonville Center
Mon 08:51:27 AM 33.2897 -80.8450 111° Southeast 379 436 11,000 -700 Descending Jacksonville Center
Mon 08:52:27 AM 33.2544 -80.7389 112° Southeast 369 425 10,900 -150 Descending Jacksonville Center
Mon 08:53:27 AM 33.2236 -80.6356 110° East 358 412 10,700 -700 Descending Jacksonville Center
Mon 08:54:27 AM 33.1989 -80.5369 107° East 321 369 9,500 -1,650 Descending Jacksonville Center
Mon 08:55:27 AM 33.1719 -80.4433 109° East 304 350 7,400 -1,900 Descending Jacksonville Center
Mon 08:56:27 AM 33.1450 -80.3472 108° East 299 344 5,700 -1,750 Descending Jacksonville Center
Mon 08:57:27 AM 33.1225 -80.2611 107° East 294 338 3,900 -1,850 Descending Jacksonville Center
Mon 08:58:27 AM 33.0994 -80.1700 107° East 287 330 2,000 -1,200 Descending Jacksonville Center
Mon 08:59:27 AM 33.0814 -80.0986 107° East 276 318 1,500 -250 Descending Jacksonville Center
Mon 09:00:27 AM 33.0675 -80.0347 105° East 233 268 1,500  Level Jacksonville Center

Login

Don't have an account? Register now (free) for customized features, flight alerts, and more!